Wilkinson, Indiana
Current Conditions -  °F | °C
As of 6:15 AM on Saturday 25 Oct 2014 (Local Time) from KMQJ Reporting Station
Overcast Overcast  
Wind Chill: 12°   Ceiling: 3300
Heat Index: 12°   Visibility: 7mi
Dew Point: 11°   Wind: 8mph
Humidity: 94%   Direction: 190°S
Pressure: 29.95"   Gusts: NA
Location:  39.89°N, 85.61°W
Report Text: KMQJ 251015Z AUTO 19007KT 7SM BKN033 BKN039 OVC046 12/11 A2995 RMK AO1
Loading
Personal Weather Stations






























Interactive Weather Map
Tropical Storm Tracking
New forecast layout! Learn more

10-Day Weather Forecast

Advertisements
Track Severe Weather on mobile